AirNav   Bose ProFlight Aviation Headset
 
 1376 users online  

OL03 Happy Valley Airport
Happy Valley, Oregon, USA

GOING TO HAPPY VALLEY?


FAA INFORMATION EFFECTIVE 08 NOVEMBER 2018

Location

FAA Identifier: OL03
Lat/Long: 45-26-53.4340N / 122-29-58.3230W
45-26.890567N / 122-29.972050W
45.4481761 / -122.4995342
(estimated)
Elevation: 797 ft. / 243 m (estimated)
Variation: 19E (1985)
From city: 2 miles SE of HAPPY VALLEY, OR
Time zone: UTC -8 (UTC -7 during Daylight Saving Time)
Zip code: 97236

Airport Operations

Airport use: Private use. Permission required prior to landing
Activation date: 02/1964
Control tower: no
ARTCC: SEATTLE CENTER
FSS: MC MINNVILLE FLIGHT SERVICE STATION
Attendance: IREG
Pattern altitude: 1797 ft. MSL
TFC PAT ALT 1000'; ULTRALIGHT 703'.
Wind indicator: yes
Segmented circle: no
Lights: FOR LIRL RWY 16/34 CALL 503-761-5555.

Airport Communications

WX ASOS at TTD (7 nm NE): 135.625 (503-492-2887)
WX ASOS at PDX (9 nm NW): PHONE (503) 493-7687
WX ASOS at VUO (12 nm NW): 135.125 (360-696-1280)
WX ASOS at UAO (17 nm SW): PHONE 503-678-3011
WX ASOS at HIO (20 nm W): PHONE 503-640-2984

Nearby radio navigation aids

VOR radial/distance  VOR name  Freq  Var
BTGr147/18.4BATTLE GROUND VORTAC116.6021E
UBGr053/21.0NEWBERG VOR/DME117.4021E

 
NDB name  Hdg/Dist  Freq  Var  ID
BANKS099/25.435616EPND .--. -. -..

Airport Services

Parking: tiedowns
Airframe service: NONE
Powerplant service: NONE
Bottled oxygen: NONE
Bulk oxygen: NONE

Runway Information

Runway 16/34

Dimensions: 2264 x 25 ft. / 690 x 8 m
Surface: asphalt
Runway edge lights: low intensity
RUNWAY 16  RUNWAY 34
Traffic pattern: leftright
Markings: nonenone
Obstructions: 25 ft. trees, 400 ft. from runway, 15:1 slope to clear10 ft. trees, 200 ft. from runway, 20:1 slope to clear
+25' TREES 150' LEFT.

Airport Ownership and Management from official FAA records

Ownership: Privately-owned
Owner: LARRY BURRIGHT JR
8750 SE 155TH AVE # 6B
HAPPY VALLEY, OR 97086
Phone 503-807-9010
Manager: LARRY BURRIGHT JR
8750 SE 155TH AVE # 6B
HAPPY VALLEY, OR 97086
Phone 503-807-9010
ALTERNATE CONTACT ERIC ANTOV AT PHONE 503-421-7304.

Airport Operational Statistics

Aircraft based on the field: 3
Single engine airplanes: 2
Helicopters: 1
    
Aircraft operations: avg 33/month *
100% transient general aviation
* for 12-month period ending 13 October 1988

Additional Remarks

EMERGENCY LANDING ONLY.
FOR CD CTC PORTLAND APCH AT 503-493-7545.

Instrument Procedures

There are no published instrument procedures at OL03.

Some nearby airports with instrument procedures:

KTTD - Portland-Troutdale Airport (7 nm NE)
KPDX - Portland International Airport (9 nm NW)
KVUO - Pearson Field Airport (12 nm NW)
KUAO - Aurora State Airport (17 nm SW)
KHIO - Portland-Hillsboro Airport (20 nm W)
 
Loc | Ops | Rwys | IFR | FBO | Links
Com | Nav | Svcs | Stats | Notes


 
Area around OL03 (Happy Valley Airport)
 
Road maps at: MapQuest Bing Google
 
Aerial photo
WARNING: Photo may not be current or correct
Aerial photo of OL03 (Happy Valley Airport)
Photo by David Wyatt
Photo taken 04-Sep-2006
from the south looking north

Do you have a better or more recent aerial photo of Happy Valley Airport that you would like to share? If so, please send us your photo.

 
Sectional chart

 
Airport distance calculator
Flying to Happy Valley Airport? Find the distance to fly.

From to OL03

Sunrise and sunset
Times for 21-Nov-2018
 Local
(UTC-8)
 Zulu
(UTC)
Morning civil twilight06:4614:46
Sunrise07:1815:18
Sunset16:3400:34
Evening civil twilight17:0601:06

Current date and time
Zulu (UTC)  21-Nov-2018 17:17:35
Local (UTC-8)  21-Nov-2018 09:17:35
 
METAR
KTTD 
7nm NE 
211653Z 08018G27KT 10SM OVC080 07/00 A2983 RMK AO2 PK WND 09030/1559 SLP099 T00670000
KPDX 
9nm NW 
211653Z 13008KT 10SM OVC080 08/00 A2984 RMK AO2 SLP102 T00780000
KVUO 
12nm NW 
211653Z AUTO 17003KT 10SM OVC080 08/00 A2984 RMK AO2 SLP104 T00780000
KUAO 
16nm SW 
211653Z 19010KT 10SM BKN080 OVC095 07/03 A2986 RMK AO2 PRESRR SLP111 T00670028
KHIO 
20nm W 
211653Z 28003KT 10SM OVC075 06/04 A2983 RMK AO2 RAE29 SLP104 P0001 T00560039
TAF
KTTD 
7nm NE 
211125Z 2112/2212 09020G28KT P6SM OVC150 FM211700 09015G25KT P6SM -RA SCT030 OVC060 FM212100 09013G20KT P6SM -RA SCT025 OVC050
KPDX 
9nm NW 
211449Z 2115/2212 11008KT P6SM OVC100 FM211600 11010KT P6SM -RA SCT030 OVC080 FM212100 12010KT P6SM -RA SCT025 OVC050
KUAO 
16nm SW 
211125Z 2112/2212 VRB03KT P6SM OVC150 FM211600 VRB03KT P6SM -RA SCT030 OVC060 FM212000 15005KT 6SM -RA BR SCT025 OVC050 FM220100 18004KT 6SM -RA BR SCT025 OVC050
KHIO 
20nm W 
211125Z 2112/2212 00000KT P6SM OVC150 FM211500 VRB04KT P6SM -RA SCT025 OVC060 FM212000 13004KT 6SM -RA BR SCT015 OVC040 FM220500 VRB03KT 4SM -RA BR BKN025 OVC035
NOTAMs
Click for the latest NOTAMs
NOTAMs are issued by the DoD/FAA and will open in a separate window not controlled by AirNav.

 

 
 

Would you like to see your business listed on this page?

 If your business provides an interesting product or service to pilots, flight crews, aircraft, or users of the Happy Valley Airport, you should consider listing it here.  To start the listing process, click on the button below
 
Add a business
 

Other Pages about Happy Valley Airport

Update a link
 
Copyright © AirNav, LLC. All rights reserved. Privacy Policy  Contact